sensor_id;sensor_type;location;lat;lon;timestamp;P1;durP1;ratioP1;P2;durP2;ratioP2
11839;SDS011;5979;50.800;4.904;2022-11-23T00:00:23;6.35;;;2.22;;
11839;SDS011;5979;50.800;4.904;2022-11-23T00:02:52;4.63;;;2.28;;
11839;SDS011;5979;50.800;4.904;2022-11-23T00:05:19;4.90;;;2.40;;
11839;SDS011;5979;50.800;4.904;2022-11-23T00:07:44;8.38;;;2.80;;
11839;SDS011;5979;50.800;4.904;2022-11-23T00:10:10;5.38;;;2.42;;
11839;SDS011;5979;50.800;4.904;2022-11-23T00:12:35;4.45;;;2.17;;
11839;SDS011;5979;50.800;4.904;2022-11-23T00:15:01;4.32;;;2.35;;
11839;SDS011;5979;50.800;4.904;2022-11-23T00:17:27;7.40;;;2.20;;
11839;SDS011;5979;50.800;4.904;2022-11-23T00:19:53;10.35;;;2.70;;
11839;SDS011;5979;50.800;4.904;2022-11-23T00:22:19;7.07;;;2.13;;
11839;SDS011;5979;50.800;4.904;2022-11-23T00:24:45;5.28;;;3.00;;
11839;SDS011;5979;50.800;4.904;2022-11-23T00:27:11;8.43;;;2.58;;
11839;SDS011;5979;50.800;4.904;2022-11-23T00:29:37;8.38;;;2.67;;
11839;SDS011;5979;50.800;4.904;2022-11-23T00:32:02;8.48;;;3.08;;
11839;SDS011;5979;50.800;4.904;2022-11-23T00:34:28;5.53;;;2.80;;
11839;SDS011;5979;50.800;4.904;2022-11-23T00:36:54;9.73;;;2.95;;
11839;SDS011;5979;50.800;4.904;2022-11-23T00:39:19;7.20;;;2.85;;
11839;SDS011;5979;50.800;4.904;2022-11-23T00:41:45;8.65;;;3.38;;
11839;SDS011;5979;50.800;4.904;2022-11-23T00:44:10;10.32;;;3.25;;
11839;SDS011;5979;50.800;4.904;2022-11-23T00:46:36;7.22;;;3.00;;
11839;SDS011;5979;50.800;4.904;2022-11-23T00:49:02;7.82;;;2.90;;
11839;SDS011;5979;50.800;4.904;2022-11-23T00:51:29;8.07;;;2.65;;
11839;SDS011;5979;50.800;4.904;2022-11-23T00:53:56;11.40;;;2.75;;
11839;SDS011;5979;50.800;4.904;2022-11-23T00:56:23;7.57;;;2.92;;
11839;SDS011;5979;50.800;4.904;2022-11-23T00:58:50;6.82;;;2.70;;
11839;SDS011;5979;50.800;4.904;2022-11-23T01:01:18;5.53;;;2.45;;
11839;SDS011;5979;50.800;4.904;2022-11-23T01:03:46;7.35;;;3.17;;
11839;SDS011;5979;50.800;4.904;2022-11-23T01:06:17;10.25;;;3.15;;
11839;SDS011;5979;50.800;4.904;2022-11-23T01:08:49;9.30;;;2.88;;
11839;SDS011;5979;50.800;4.904;2022-11-23T01:11:16;10.57;;;3.95;;
11839;SDS011;5979;50.800;4.904;2022-11-23T01:13:42;12.13;;;3.15;;
11839;SDS011;5979;50.800;4.904;2022-11-23T01:16:30;7.28;;;2.92;;
11839;SDS011;5979;50.800;4.904;2022-11-23T01:18:59;4.97;;;2.55;;
11839;SDS011;5979;50.800;4.904;2022-11-23T01:21:27;7.53;;;2.67;;
11839;SDS011;5979;50.800;4.904;2022-11-23T01:23:54;10.15;;;3.15;;
11839;SDS011;5979;50.800;4.904;2022-11-23T01:26:20;14.90;;;3.30;;
11839;SDS011;5979;50.800;4.904;2022-11-23T01:28:46;7.32;;;2.67;;
11839;SDS011;5979;50.800;4.904;2022-11-23T01:31:16;7.28;;;2.90;;
11839;SDS011;5979;50.800;4.904;2022-11-23T01:33:44;8.52;;;2.92;;
11839;SDS011;5979;50.800;4.904;2022-11-23T01:36:14;13.48;;;3.03;;
11839;SDS011;5979;50.800;4.904;2022-11-23T01:38:42;10.40;;;3.47;;
11839;SDS011;5979;50.800;4.904;2022-11-23T01:41:10;8.77;;;2.55;;
11839;SDS011;5979;50.800;4.904;2022-11-23T01:43:37;7.80;;;2.78;;
11839;SDS011;5979;50.800;4.904;2022-11-23T01:46:04;8.65;;;3.05;;
11839;SDS011;5979;50.800;4.904;2022-11-23T01:48:39;10.25;;;3.67;;
11839;SDS011;5979;50.800;4.904;2022-11-23T01:51:15;6.35;;;2.92;;
11839;SDS011;5979;50.800;4.904;2022-11-23T01:53:45;10.35;;;4.13;;
11839;SDS011;5979;50.800;4.904;2022-11-23T01:56:16;13.00;;;3.72;;
11839;SDS011;5979;50.800;4.904;2022-11-23T01:58:48;10.85;;;3.67;;
11839;SDS011;5979;50.800;4.904;2022-11-23T02:01:16;8.05;;;2.95;;
11839;SDS011;5979;50.800;4.904;2022-11-23T02:03:42;13.55;;;3.75;;
11839;SDS011;5979;50.800;4.904;2022-11-23T02:06:15;14.23;;;3.17;;
11839;SDS011;5979;50.800;4.904;2022-11-23T02:08:42;10.68;;;3.15;;
11839;SDS011;5979;50.800;4.904;2022-11-23T02:11:08;7.22;;;3.55;;
11839;SDS011;5979;50.800;4.904;2022-11-23T02:13:36;10.68;;;2.97;;
11839;SDS011;5979;50.800;4.904;2022-11-23T02:16:02;8.57;;;3.40;;
11839;SDS011;5979;50.800;4.904;2022-11-23T02:18:29;8.05;;;2.60;;
11839;SDS011;5979;50.800;4.904;2022-11-23T02:20:56;8.63;;;3.72;;
11839;SDS011;5979;50.800;4.904;2022-11-23T02:24:25;13.65;;;4.32;;
11839;SDS011;5979;50.800;4.904;2022-11-23T02:26:22;9.90;;;3.08;;
11839;SDS011;5979;50.800;4.904;2022-11-23T02:31:36;7.60;;;3.00;;
11839;SDS011;5979;50.800;4.904;2022-11-23T02:34:02;9.05;;;2.95;;
11839;SDS011;5979;50.800;4.904;2022-11-23T02:38:57;8.80;;;3.20;;
11839;SDS011;5979;50.800;4.904;2022-11-23T02:41:24;10.00;;;2.78;;
11839;SDS011;5979;50.800;4.904;2022-11-23T02:43:51;9.57;;;4.00;;
11839;SDS011;5979;50.800;4.904;2022-11-23T02:46:20;11.93;;;2.63;;
11839;SDS011;5979;50.800;4.904;2022-11-23T02:48:46;7.85;;;2.90;;
11839;SDS011;5979;50.800;4.904;2022-11-23T02:51:11;8.40;;;2.85;;
11839;SDS011;5979;50.800;4.904;2022-11-23T02:53:38;10.57;;;3.63;;
11839;SDS011;5979;50.800;4.904;2022-11-23T02:56:03;9.90;;;2.95;;
11839;SDS011;5979;50.800;4.904;2022-11-23T02:58:29;8.18;;;3.20;;
11839;SDS011;5979;50.800;4.904;2022-11-23T03:00:55;13.13;;;3.78;;
11839;SDS011;5979;50.800;4.904;2022-11-23T03:03:21;8.02;;;2.97;;
11839;SDS011;5979;50.800;4.904;2022-11-23T03:05:46;7.70;;;2.88;;
11839;SDS011;5979;50.800;4.904;2022-11-23T03:08:12;9.90;;;2.88;;
11839;SDS011;5979;50.800;4.904;2022-11-23T03:10:38;8.27;;;3.50;;
11839;SDS011;5979;50.800;4.904;2022-11-23T03:13:03;9.43;;;3.03;;
11839;SDS011;5979;50.800;4.904;2022-11-23T03:15:29;9.85;;;3.05;;
11839;SDS011;5979;50.800;4.904;2022-11-23T03:17:55;17.75;;;3.22;;
11839;SDS011;5979;50.800;4.904;2022-11-23T03:20:21;13.60;;;3.55;;
11839;SDS011;5979;50.800;4.904;2022-11-23T03:22:47;10.25;;;3.17;;
11839;SDS011;5979;50.800;4.904;2022-11-23T03:25:12;10.65;;;2.90;;
11839;SDS011;5979;50.800;4.904;2022-11-23T03:27:38;12.43;;;4.10;;
11839;SDS011;5979;50.800;4.904;2022-11-23T03:30:05;7.70;;;2.50;;
11839;SDS011;5979;50.800;4.904;2022-11-23T03:32:32;9.57;;;3.58;;
11839;SDS011;5979;50.800;4.904;2022-11-23T03:34:58;8.45;;;2.63;;
11839;SDS011;5979;50.800;4.904;2022-11-23T03:37:24;5.53;;;2.47;;
11839;SDS011;5979;50.800;4.904;2022-11-23T03:39:49;8.15;;;3.35;;
11839;SDS011;5979;50.800;4.904;2022-11-23T03:42:15;9.15;;;2.75;;
11839;SDS011;5979;50.800;4.904;2022-11-23T03:44:41;8.50;;;2.85;;
11839;SDS011;5979;50.800;4.904;2022-11-23T03:47:06;7.82;;;2.72;;
11839;SDS011;5979;50.800;4.904;2022-11-23T03:49:32;5.32;;;2.63;;
11839;SDS011;5979;50.800;4.904;2022-11-23T03:51:58;12.05;;;3.20;;
11839;SDS011;5979;50.800;4.904;2022-11-23T03:54:23;8.40;;;3.00;;
11839;SDS011;5979;50.800;4.904;2022-11-23T03:56:49;6.25;;;2.58;;
11839;SDS011;5979;50.800;4.904;2022-11-23T03:59:14;6.95;;;2.58;;
11839;SDS011;5979;50.800;4.904;2022-11-23T04:01:40;10.88;;;3.10;;
11839;SDS011;5979;50.800;4.904;2022-11-23T04:04:06;8.00;;;2.78;;
11839;SDS011;5979;50.800;4.904;2022-11-23T04:06:31;8.93;;;2.60;;
11839;SDS011;5979;50.800;4.904;2022-11-23T04:08:57;9.77;;;3.10;;
11839;SDS011;5979;50.800;4.904;2022-11-23T04:11:23;11.63;;;3.50;;
11839;SDS011;5979;50.800;4.904;2022-11-23T04:13:48;5.57;;;2.55;;
11839;SDS011;5979;50.800;4.904;2022-11-23T04:16:14;9.98;;;3.00;;
11839;SDS011;5979;50.800;4.904;2022-11-23T04:18:40;10.18;;;2.70;;
11839;SDS011;5979;50.800;4.904;2022-11-23T04:21:06;6.57;;;2.22;;
11839;SDS011;5979;50.800;4.904;2022-11-23T04:23:31;6.57;;;2.42;;
11839;SDS011;5979;50.800;4.904;2022-11-23T04:25:57;9.25;;;3.15;;
11839;SDS011;5979;50.800;4.904;2022-11-23T04:28:23;9.60;;;3.20;;
11839;SDS011;5979;50.800;4.904;2022-11-23T04:30:48;12.10;;;3.00;;
11839;SDS011;5979;50.800;4.904;2022-11-23T04:33:14;10.60;;;2.65;;
11839;SDS011;5979;50.800;4.904;2022-11-23T04:35:39;11.63;;;3.15;;
11839;SDS011;5979;50.800;4.904;2022-11-23T04:38:05;10.52;;;2.13;;
11839;SDS011;5979;50.800;4.904;2022-11-23T04:40:31;6.88;;;2.70;;
11839;SDS011;5979;50.800;4.904;2022-11-23T04:42:57;10.48;;;3.00;;
11839;SDS011;5979;50.800;4.904;2022-11-23T04:45:23;8.55;;;3.28;;
11839;SDS011;5979;50.800;4.904;2022-11-23T04:47:49;12.60;;;3.97;;
11839;SDS011;5979;50.800;4.904;2022-11-23T04:50:15;13.15;;;3.20;;
11839;SDS011;5979;50.800;4.904;2022-11-23T04:52:40;8.60;;;2.72;;
11839;SDS011;5979;50.800;4.904;2022-11-23T04:55:06;9.27;;;2.75;;
11839;SDS011;5979;50.800;4.904;2022-11-23T04:57:32;11.85;;;3.40;;
11839;SDS011;5979;50.800;4.904;2022-11-23T04:59:57;7.28;;;2.88;;
11839;SDS011;5979;50.800;4.904;2022-11-23T05:02:23;9.73;;;3.17;;
11839;SDS011;5979;50.800;4.904;2022-11-23T05:04:49;9.85;;;3.10;;
11839;SDS011;5979;50.800;4.904;2022-11-23T05:07:15;12.00;;;3.05;;
11839;SDS011;5979;50.800;4.904;2022-11-23T05:09:40;7.68;;;2.75;;
11839;SDS011;5979;50.800;4.904;2022-11-23T05:12:07;6.57;;;2.80;;
11839;SDS011;5979;50.800;4.904;2022-11-23T05:14:33;7.20;;;2.60;;
11839;SDS011;5979;50.800;4.904;2022-11-23T05:16:58;10.27;;;3.33;;
11839;SDS011;5979;50.800;4.904;2022-11-23T05:19:24;5.05;;;2.38;;
11839;SDS011;5979;50.800;4.904;2022-11-23T05:21:50;12.60;;;3.13;;
11839;SDS011;5979;50.800;4.904;2022-11-23T05:24:15;6.60;;;2.17;;
11839;SDS011;5979;50.800;4.904;2022-11-23T05:26:41;10.75;;;3.15;;
11839;SDS011;5979;50.800;4.904;2022-11-23T05:29:06;7.85;;;2.92;;
11839;SDS011;5979;50.800;4.904;2022-11-23T05:31:32;4.50;;;2.30;;
11839;SDS011;5979;50.800;4.904;2022-11-23T05:33:58;9.70;;;2.47;;
11839;SDS011;5979;50.800;4.904;2022-11-23T05:36:23;9.30;;;3.03;;
11839;SDS011;5979;50.800;4.904;2022-11-23T05:38:49;12.05;;;3.00;;
11839;SDS011;5979;50.800;4.904;2022-11-23T05:41:16;13.40;;;2.90;;
11839;SDS011;5979;50.800;4.904;2022-11-23T05:43:41;6.53;;;3.05;;
11839;SDS011;5979;50.800;4.904;2022-11-23T05:46:07;11.38;;;2.67;;
11839;SDS011;5979;50.800;4.904;2022-11-23T05:48:33;12.18;;;2.75;;
11839;SDS011;5979;50.800;4.904;2022-11-23T05:50:58;9.55;;;2.70;;
11839;SDS011;5979;50.800;4.904;2022-11-23T05:53:24;5.72;;;2.53;;
11839;SDS011;5979;50.800;4.904;2022-11-23T05:55:50;7.72;;;2.40;;
11839;SDS011;5979;50.800;4.904;2022-11-23T05:58:15;6.63;;;2.58;;
11839;SDS011;5979;50.800;4.904;2022-11-23T06:00:41;7.95;;;2.92;;
11839;SDS011;5979;50.800;4.904;2022-11-23T06:03:07;10.75;;;2.42;;
11839;SDS011;5979;50.800;4.904;2022-11-23T06:05:32;8.40;;;2.28;;
11839;SDS011;5979;50.800;4.904;2022-11-23T06:07:58;7.05;;;2.88;;
11839;SDS011;5979;50.800;4.904;2022-11-23T06:10:24;8.32;;;2.83;;
11839;SDS011;5979;50.800;4.904;2022-11-23T06:12:49;10.73;;;2.72;;
11839;SDS011;5979;50.800;4.904;2022-11-23T06:15:16;8.65;;;3.22;;
11839;SDS011;5979;50.800;4.904;2022-11-23T06:17:42;7.55;;;2.22;;
11839;SDS011;5979;50.800;4.904;2022-11-23T06:20:08;7.80;;;2.40;;
11839;SDS011;5979;50.800;4.904;2022-11-23T06:22:34;9.63;;;3.08;;
11839;SDS011;5979;50.800;4.904;2022-11-23T06:25:00;7.60;;;2.70;;
11839;SDS011;5979;50.800;4.904;2022-11-23T06:27:25;6.22;;;2.40;;
11839;SDS011;5979;50.800;4.904;2022-11-23T06:29:51;5.75;;;2.50;;
11839;SDS011;5979;50.800;4.904;2022-11-23T06:32:17;11.48;;;3.65;;
11839;SDS011;5979;50.800;4.904;2022-11-23T06:34:43;6.65;;;2.40;;
11839;SDS011;5979;50.800;4.904;2022-11-23T06:37:08;8.82;;;3.25;;
11839;SDS011;5979;50.800;4.904;2022-11-23T06:39:34;13.15;;;3.45;;
11839;SDS011;5979;50.800;4.904;2022-11-23T06:42:00;6.05;;;3.08;;
11839;SDS011;5979;50.800;4.904;2022-11-23T06:44:26;6.78;;;2.45;;
11839;SDS011;5979;50.800;4.904;2022-11-23T06:46:51;7.90;;;3.13;;
11839;SDS011;5979;50.800;4.904;2022-11-23T06:49:17;4.70;;;2.30;;
11839;SDS011;5979;50.800;4.904;2022-11-23T06:51:44;7.38;;;2.92;;
11839;SDS011;5979;50.800;4.904;2022-11-23T06:54:10;5.85;;;2.50;;
11839;SDS011;5979;50.800;4.904;2022-11-23T06:56:36;7.80;;;2.72;;
11839;SDS011;5979;50.800;4.904;2022-11-23T06:59:02;4.13;;;2.58;;
11839;SDS011;5979;50.800;4.904;2022-11-23T07:01:28;7.68;;;2.50;;
11839;SDS011;5979;50.800;4.904;2022-11-23T07:03:53;8.32;;;2.85;;
11839;SDS011;5979;50.800;4.904;2022-11-23T07:06:19;11.57;;;2.53;;
11839;SDS011;5979;50.800;4.904;2022-11-23T07:08:45;8.00;;;3.13;;
11839;SDS011;5979;50.800;4.904;2022-11-23T07:11:10;6.30;;;2.25;;
11839;SDS011;5979;50.800;4.904;2022-11-23T07:13:37;4.22;;;2.30;;
11839;SDS011;5979;50.800;4.904;2022-11-23T07:16:03;10.20;;;2.80;;
11839;SDS011;5979;50.800;4.904;2022-11-23T07:18:29;10.73;;;2.30;;
11839;SDS011;5979;50.800;4.904;2022-11-23T07:20:57;4.20;;;2.20;;
11839;SDS011;5979;50.800;4.904;2022-11-23T07:23:24;5.95;;;2.75;;
11839;SDS011;5979;50.800;4.904;2022-11-23T07:25:50;7.57;;;2.88;;
11839;SDS011;5979;50.800;4.904;2022-11-23T07:28:16;6.53;;;3.25;;
11839;SDS011;5979;50.800;4.904;2022-11-23T07:30:42;8.25;;;3.25;;
11839;SDS011;5979;50.800;4.904;2022-11-23T07:33:09;6.35;;;2.85;;
11839;SDS011;5979;50.800;4.904;2022-11-23T07:35:36;6.50;;;2.15;;
11839;SDS011;5979;50.800;4.904;2022-11-23T07:38:03;10.55;;;2.50;;
11839;SDS011;5979;50.800;4.904;2022-11-23T07:40:32;9.77;;;2.75;;
11839;SDS011;5979;50.800;4.904;2022-11-23T07:42:59;8.20;;;2.40;;
11839;SDS011;5979;50.800;4.904;2022-11-23T07:45:26;6.55;;;2.60;;
11839;SDS011;5979;50.800;4.904;2022-11-23T07:47:59;6.00;;;2.60;;
11839;SDS011;5979;50.800;4.904;2022-11-23T07:50:26;6.25;;;2.00;;
11839;SDS011;5979;50.800;4.904;2022-11-23T07:52:52;7.97;;;2.55;;
11839;SDS011;5979;50.800;4.904;2022-11-23T07:55:18;9.05;;;2.60;;
11839;SDS011;5979;50.800;4.904;2022-11-23T07:57:44;9.15;;;3.25;;
11839;SDS011;5979;50.800;4.904;2022-11-23T08:00:10;10.60;;;2.70;;
11839;SDS011;5979;50.800;4.904;2022-11-23T08:02:36;7.75;;;3.05;;
11839;SDS011;5979;50.800;4.904;2022-11-23T08:05:02;9.90;;;2.85;;
11839;SDS011;5979;50.800;4.904;2022-11-23T08:07:28;10.75;;;2.92;;
11839;SDS011;5979;50.800;4.904;2022-11-23T08:09:54;7.18;;;2.50;;
11839;SDS011;5979;50.800;4.904;2022-11-23T08:12:20;8.15;;;2.83;;
11839;SDS011;5979;50.800;4.904;2022-11-23T08:14:45;5.10;;;2.35;;
11839;SDS011;5979;50.800;4.904;2022-11-23T08:17:11;8.00;;;2.33;;
11839;SDS011;5979;50.800;4.904;2022-11-23T08:19:37;10.20;;;3.13;;
11839;SDS011;5979;50.800;4.904;2022-11-23T08:22:02;5.45;;;2.60;;
11839;SDS011;5979;50.800;4.904;2022-11-23T08:24:28;7.90;;;2.58;;
11839;SDS011;5979;50.800;4.904;2022-11-23T08:26:54;7.22;;;2.65;;
11839;SDS011;5979;50.800;4.904;2022-11-23T08:29:20;7.22;;;2.47;;
11839;SDS011;5979;50.800;4.904;2022-11-23T08:31:46;9.55;;;2.58;;
11839;SDS011;5979;50.800;4.904;2022-11-23T08:34:11;6.18;;;2.42;;
11839;SDS011;5979;50.800;4.904;2022-11-23T08:36:38;4.40;;;2.30;;
11839;SDS011;5979;50.800;4.904;2022-11-23T08:39:04;7.15;;;2.00;;
11839;SDS011;5979;50.800;4.904;2022-11-23T08:41:30;7.28;;;2.72;;
11839;SDS011;5979;50.800;4.904;2022-11-23T08:43:55;7.65;;;2.00;;
11839;SDS011;5979;50.800;4.904;2022-11-23T08:46:21;10.35;;;2.65;;
11839;SDS011;5979;50.800;4.904;2022-11-23T08:48:47;4.53;;;2.15;;
11839;SDS011;5979;50.800;4.904;2022-11-23T08:51:12;6.55;;;2.47;;
11839;SDS011;5979;50.800;4.904;2022-11-23T08:53:38;5.80;;;2.28;;
11839;SDS011;5979;50.800;4.904;2022-11-23T08:56:04;6.78;;;2.08;;
11839;SDS011;5979;50.800;4.904;2022-11-23T08:58:31;6.40;;;2.00;;
11839;SDS011;5979;50.800;4.904;2022-11-23T09:00:57;6.22;;;2.40;;
11839;SDS011;5979;50.800;4.904;2022-11-23T09:03:23;5.78;;;2.25;;
11839;SDS011;5979;50.800;4.904;2022-11-23T09:05:48;6.97;;;2.28;;
11839;SDS011;5979;50.800;4.904;2022-11-23T09:08:15;6.00;;;2.22;;
11839;SDS011;5979;50.800;4.904;2022-11-23T09:10:41;8.02;;;2.15;;
11839;SDS011;5979;50.800;4.904;2022-11-23T09:13:07;3.22;;;2.30;;
11839;SDS011;5979;50.800;4.904;2022-11-23T09:15:32;2.97;;;1.83;;
11839;SDS011;5979;50.800;4.904;2022-11-23T09:17:58;6.20;;;2.30;;
11839;SDS011;5979;50.800;4.904;2022-11-23T09:20:24;5.05;;;2.25;;
11839;SDS011;5979;50.800;4.904;2022-11-23T09:22:50;4.45;;;2.00;;
11839;SDS011;5979;50.800;4.904;2022-11-23T09:25:19;4.15;;;1.75;;
11839;SDS011;5979;50.800;4.904;2022-11-23T09:27:46;4.38;;;2.15;;
11839;SDS011;5979;50.800;4.904;2022-11-23T09:30:12;2.97;;;1.80;;
11839;SDS011;5979;50.800;4.904;2022-11-23T09:32:38;4.18;;;2.08;;
11839;SDS011;5979;50.800;4.904;2022-11-23T09:35:04;4.70;;;1.92;;
11839;SDS011;5979;50.800;4.904;2022-11-23T09:37:31;4.20;;;1.60;;
11839;SDS011;5979;50.800;4.904;2022-11-23T09:39:56;4.00;;;1.83;;
11839;SDS011;5979;50.800;4.904;2022-11-23T09:45:25;2.22;;;1.75;;
11839;SDS011;5979;50.800;4.904;2022-11-23T09:48:27;4.32;;;1.88;;
11839;SDS011;5979;50.800;4.904;2022-11-23T09:53:44;3.88;;;1.77;;
11839;SDS011;5979;50.800;4.904;2022-11-23T09:56:21;6.40;;;1.90;;
11839;SDS011;5979;50.800;4.904;2022-11-23T09:58:53;3.97;;;1.67;;
11839;SDS011;5979;50.800;4.904;2022-11-23T10:01:20;3.63;;;1.88;;
11839;SDS011;5979;50.800;4.904;2022-11-23T10:03:45;3.30;;;1.92;;
11839;SDS011;5979;50.800;4.904;2022-11-23T10:09:17;3.63;;;2.13;;
11839;SDS011;5979;50.800;4.904;2022-11-23T10:26:20;4.28;;;2.13;;
11839;SDS011;5979;50.800;4.904;2022-11-23T10:28:52;1.73;;;1.50;;
11839;SDS011;5979;50.800;4.904;2022-11-23T10:31:19;6.25;;;1.77;;
11839;SDS011;5979;50.800;4.904;2022-11-23T10:33:54;4.10;;;1.70;;
11839;SDS011;5979;50.800;4.904;2022-11-23T10:36:33;3.30;;;1.50;;
11839;SDS011;5979;50.800;4.904;2022-11-23T10:39:00;5.60;;;2.08;;
11839;SDS011;5979;50.800;4.904;2022-11-23T10:41:28;6.20;;;1.90;;
11839;SDS011;5979;50.800;4.904;2022-11-23T10:43:57;4.60;;;1.70;;
11839;SDS011;5979;50.800;4.904;2022-11-23T10:46:37;5.47;;;2.28;;
11839;SDS011;5979;50.800;4.904;2022-11-23T10:49:23;5.50;;;2.08;;
11839;SDS011;5979;50.800;4.904;2022-11-23T10:52:05;6.45;;;2.35;;
11839;SDS011;5979;50.800;4.904;2022-11-23T10:54:56;6.45;;;2.22;;
11839;SDS011;5979;50.800;4.904;2022-11-23T11:00:34;6.05;;;1.90;;
11839;SDS011;5979;50.800;4.904;2022-11-23T11:02:43;3.45;;;1.50;;
11839;SDS011;5979;50.800;4.904;2022-11-23T11:07:49;1.58;;;1.45;;
11839;SDS011;5979;50.800;4.904;2022-11-23T11:15:54;3.30;;;2.10;;
11839;SDS011;5979;50.800;4.904;2022-11-23T11:18:20;3.60;;;1.45;;
11839;SDS011;5979;50.800;4.904;2022-11-23T11:20:49;2.92;;;1.67;;
11839;SDS011;5979;50.800;4.904;2022-11-23T11:23:21;3.55;;;1.67;;
11839;SDS011;5979;50.800;4.904;2022-11-23T11:25:47;3.53;;;1.23;;
11839;SDS011;5979;50.800;4.904;2022-11-23T11:28:28;3.95;;;1.42;;
11839;SDS011;5979;50.800;4.904;2022-11-23T11:31:19;5.25;;;1.45;;
11839;SDS011;5979;50.800;4.904;2022-11-23T11:33:59;3.05;;;1.55;;
11839;SDS011;5979;50.800;4.904;2022-11-23T11:36:49;2.92;;;1.67;;
11839;SDS011;5979;50.800;4.904;2022-11-23T11:39:31;2.53;;;1.27;;
11839;SDS011;5979;50.800;4.904;2022-11-23T11:41:59;4.32;;;1.80;;
11839;SDS011;5979;50.800;4.904;2022-11-23T11:44:31;5.65;;;1.60;;
11839;SDS011;5979;50.800;4.904;2022-11-23T11:47:02;5.45;;;2.33;;
11839;SDS011;5979;50.800;4.904;2022-11-23T11:49:35;7.40;;;1.77;;
11839;SDS011;5979;50.800;4.904;2022-11-23T11:52:07;2.40;;;1.17;;
11839;SDS011;5979;50.800;4.904;2022-11-23T11:54:46;3.35;;;1.50;;
11839;SDS011;5979;50.800;4.904;2022-11-23T11:57:21;2.47;;;1.38;;
11839;SDS011;5979;50.800;4.904;2022-11-23T11:59:55;3.40;;;1.38;;
11839;SDS011;5979;50.800;4.904;2022-11-23T12:02:26;4.88;;;1.27;;
11839;SDS011;5979;50.800;4.904;2022-11-23T12:05:00;2.47;;;1.38;;
11839;SDS011;5979;50.800;4.904;2022-11-23T12:07:43;4.63;;;1.17;;
11839;SDS011;5979;50.800;4.904;2022-11-23T12:10:35;2.17;;;1.05;;
11839;SDS011;5979;50.800;4.904;2022-11-23T12:13:15;2.85;;;1.23;;
11839;SDS011;5979;50.800;4.904;2022-11-23T12:15:44;2.85;;;1.20;;
11839;SDS011;5979;50.800;4.904;2022-11-23T12:31:34;1.52;;;1.13;;
11839;SDS011;5979;50.800;4.904;2022-11-23T12:58:32;1.25;;;0.98;;
11839;SDS011;5979;50.800;4.904;2022-11-23T13:01:00;2.03;;;1.60;;
11839;SDS011;5979;50.800;4.904;2022-11-23T13:06:57;1.85;;;1.23;;
11839;SDS011;5979;50.800;4.904;2022-11-23T13:14:41;3.05;;;1.42;;
11839;SDS011;5979;50.800;4.904;2022-11-23T13:17:24;3.72;;;1.15;;
11839;SDS011;5979;50.800;4.904;2022-11-23T13:20:27;1.33;;;1.23;;
11839;SDS011;5979;50.800;4.904;2022-11-23T13:22:55;3.72;;;1.20;;
11839;SDS011;5979;50.800;4.904;2022-11-23T13:25:26;4.68;;;1.63;;
11839;SDS011;5979;50.800;4.904;2022-11-23T13:27:54;2.17;;;1.70;;
11839;SDS011;5979;50.800;4.904;2022-11-23T13:32:59;3.25;;;1.48;;
11839;SDS011;5979;50.800;4.904;2022-11-23T13:40:38;1.95;;;1.15;;
11839;SDS011;5979;50.800;4.904;2022-11-23T13:46:09;1.83;;;1.50;;
11839;SDS011;5979;50.800;4.904;2022-11-23T13:48:44;2.35;;;1.38;;
11839;SDS011;5979;50.800;4.904;2022-11-23T13:51:25;4.10;;;1.65;;
11839;SDS011;5979;50.800;4.904;2022-11-23T13:53:59;2.92;;;1.67;;
11839;SDS011;5979;50.800;4.904;2022-11-23T13:56:40;2.33;;;1.50;;
11839;SDS011;5979;50.800;4.904;2022-11-23T14:04:30;1.30;;;1.20;;
11839;SDS011;5979;50.800;4.904;2022-11-23T14:07:02;4.40;;;1.63;;
11839;SDS011;5979;50.800;4.904;2022-11-23T14:09:35;3.80;;;1.70;;
11839;SDS011;5979;50.800;4.904;2022-11-23T14:15:08;3.42;;;1.65;;
11839;SDS011;5979;50.800;4.904;2022-11-23T14:17:44;1.75;;;1.40;;
11839;SDS011;5979;50.800;4.904;2022-11-23T14:28:35;3.33;;;1.60;;
11839;SDS011;5979;50.800;4.904;2022-11-23T14:42:26;4.55;;;1.85;;
11839;SDS011;5979;50.800;4.904;2022-11-23T14:44:53;2.30;;;1.70;;
11839;SDS011;5979;50.800;4.904;2022-11-23T14:47:25;1.92;;;1.75;;
11839;SDS011;5979;50.800;4.904;2022-11-23T14:49:53;1.73;;;1.60;;
11839;SDS011;5979;50.800;4.904;2022-11-23T14:52:20;2.17;;;1.52;;
11839;SDS011;5979;50.800;4.904;2022-11-23T14:54:59;2.67;;;1.20;;
11839;SDS011;5979;50.800;4.904;2022-11-23T14:57:37;2.42;;;1.63;;
11839;SDS011;5979;50.800;4.904;2022-11-23T15:00:22;1.73;;;1.63;;
11839;SDS011;5979;50.800;4.904;2022-11-23T15:02:51;1.50;;;1.40;;
11839;SDS011;5979;50.800;4.904;2022-11-23T15:05:20;1.60;;;1.50;;
11839;SDS011;5979;50.800;4.904;2022-11-23T15:08:24;1.95;;;1.60;;
11839;SDS011;5979;50.800;4.904;2022-11-23T15:13:46;2.28;;;1.30;;
11839;SDS011;5979;50.800;4.904;2022-11-23T15:16:14;1.48;;;1.48;;
11839;SDS011;5979;50.800;4.904;2022-11-23T15:18:41;1.88;;;1.63;;
11839;SDS011;5979;50.800;4.904;2022-11-23T15:23:52;3.20;;;1.40;;
11839;SDS011;5979;50.800;4.904;2022-11-23T15:28:56;1.55;;;1.45;;
11839;SDS011;5979;50.800;4.904;2022-11-23T15:31:29;1.45;;;1.35;;
11839;SDS011;5979;50.800;4.904;2022-11-23T15:34:32;3.90;;;1.65;;
11839;SDS011;5979;50.800;4.904;2022-11-23T15:36:51;2.10;;;1.42;;
11839;SDS011;5979;50.800;4.904;2022-11-23T15:39:19;2.05;;;1.95;;
11839;SDS011;5979;50.800;4.904;2022-11-23T15:41:47;3.03;;;2.00;;
11839;SDS011;5979;50.800;4.904;2022-11-23T15:44:16;1.52;;;1.42;;
11839;SDS011;5979;50.800;4.904;2022-11-23T15:46:48;1.50;;;1.40;;
11839;SDS011;5979;50.800;4.904;2022-11-23T15:49:19;1.75;;;1.65;;
11839;SDS011;5979;50.800;4.904;2022-11-23T15:51:45;2.22;;;1.50;;
11839;SDS011;5979;50.800;4.904;2022-11-23T15:54:16;2.03;;;1.92;;
11839;SDS011;5979;50.800;4.904;2022-11-23T15:56:48;1.60;;;1.50;;
11839;SDS011;5979;50.800;4.904;2022-11-23T15:59:27;1.70;;;1.60;;
11839;SDS011;5979;50.800;4.904;2022-11-23T16:01:59;1.60;;;1.50;;
11839;SDS011;5979;50.800;4.904;2022-11-23T16:04:29;3.05;;;1.83;;
11839;SDS011;5979;50.800;4.904;2022-11-23T16:10:02;2.75;;;1.58;;
11839;SDS011;5979;50.800;4.904;2022-11-23T16:12:31;3.08;;;1.95;;
11839;SDS011;5979;50.800;4.904;2022-11-23T16:15:43;2.33;;;1.50;;
11839;SDS011;5979;50.800;4.904;2022-11-23T16:18:02;4.15;;;1.70;;
11839;SDS011;5979;50.800;4.904;2022-11-23T16:20:44;2.83;;;1.92;;
11839;SDS011;5979;50.800;4.904;2022-11-23T16:23:16;2.42;;;1.80;;
11839;SDS011;5979;50.800;4.904;2022-11-23T16:25:53;2.33;;;2.13;;
11839;SDS011;5979;50.800;4.904;2022-11-23T16:28:36;5.50;;;2.35;;
11839;SDS011;5979;50.800;4.904;2022-11-23T16:31:04;2.53;;;1.52;;
11839;SDS011;5979;50.800;4.904;2022-11-23T16:33:30;2.80;;;2.05;;
11839;SDS011;5979;50.800;4.904;2022-11-23T16:35:56;2.17;;;1.92;;
11839;SDS011;5979;50.800;4.904;2022-11-23T16:38:22;2.35;;;1.73;;
11839;SDS011;5979;50.800;4.904;2022-11-23T16:40:49;2.33;;;1.95;;
11839;SDS011;5979;50.800;4.904;2022-11-23T16:43:16;3.97;;;2.17;;
11839;SDS011;5979;50.800;4.904;2022-11-23T16:45:46;4.18;;;2.45;;
11839;SDS011;5979;50.800;4.904;2022-11-23T16:50:50;2.45;;;2.22;;
11839;SDS011;5979;50.800;4.904;2022-11-23T16:53:17;3.25;;;2.30;;
11839;SDS011;5979;50.800;4.904;2022-11-23T16:55:44;6.95;;;2.60;;
11839;SDS011;5979;50.800;4.904;2022-11-23T16:58:12;5.70;;;2.35;;
11839;SDS011;5979;50.800;4.904;2022-11-23T17:00:39;3.97;;;2.40;;
11839;SDS011;5979;50.800;4.904;2022-11-23T17:03:09;3.00;;;2.63;;
11839;SDS011;5979;50.800;4.904;2022-11-23T17:05:38;5.70;;;2.80;;
11839;SDS011;5979;50.800;4.904;2022-11-23T17:08:03;2.80;;;2.60;;
11839;SDS011;5979;50.800;4.904;2022-11-23T17:10:29;2.70;;;2.50;;
11839;SDS011;5979;50.800;4.904;2022-11-23T17:12:55;5.45;;;2.70;;
11839;SDS011;5979;50.800;4.904;2022-11-23T17:15:21;5.57;;;2.65;;
11839;SDS011;5979;50.800;4.904;2022-11-23T17:17:48;4.60;;;2.88;;
11839;SDS011;5979;50.800;4.904;2022-11-23T17:20:14;6.80;;;2.60;;
11839;SDS011;5979;50.800;4.904;2022-11-23T17:22:40;5.47;;;2.55;;
11839;SDS011;5979;50.800;4.904;2022-11-23T17:25:07;4.70;;;3.13;;
11839;SDS011;5979;50.800;4.904;2022-11-23T17:27:34;5.68;;;2.72;;